Time,TemperatureF,DewpointF,PressureIn,WindDirection,WindDirectionDegrees,WindSpeedMPH,WindSpeedGustMPH,Humidity,HourlyPrecipIn,Conditions,Clouds,dailyrainin,SolarRadiationWatts/m^2,SoftwareType,DateUTC
2013-01-21 00:05:00,44.5,29.0,30.13,NW,306,0.0,0.0,56,0.00,,,0.00,0,weatherlink.com 1.10,2013-01-21 08:05:00,
2013-01-21 00:20:00,43.8,28.0,30.13,NW,306,0.0,0.0,55,0.00,,,0.00,0,weatherlink.com 1.10,2013-01-21 08:20:00,
2013-01-21 00:35:00,44.1,29.0,30.12,NW,306,0.0,0.0,56,0.00,,,0.00,0,weatherlink.com 1.10,2013-01-21 08:35:00,
2013-01-21 00:50:00,43.8,29.0,30.12,NW,306,0.0,0.0,57,0.00,,,0.00,0,weatherlink.com 1.10,2013-01-21 08:50:00,
2013-01-21 01:05:00,43.5,28.0,30.12,NW,306,0.0,1.0,54,0.00,,,0.00,0,weatherlink.com 1.10,2013-01-21 09:05:00,
2013-01-21 01:20:00,43.6,29.0,30.11,NW,306,0.0,0.0,56,0.00,,,0.00,0,weatherlink.com 1.10,2013-01-21 09:20:00,
2013-01-21 01:35:00,43.5,29.0,30.12,NW,306,0.0,0.0,57,0.00,,,0.00,0,weatherlink.com 1.10,2013-01-21 09:35:00,
2013-01-21 01:50:00,43.3,27.0,30.11,NW,306,0.0,0.0,54,0.00,,,0.00,0,weatherlink.com 1.10,2013-01-21 09:50:00,
2013-01-21 02:05:00,43.6,29.0,30.11,NW,306,0.0,1.0,57,0.00,,,0.00,0,weatherlink.com 1.10,2013-01-21 10:05:00,
2013-01-21 02:20:00,44.1,30.0,30.11,NW,306,0.0,0.0,58,0.00,,,0.00,0,weatherlink.com 1.10,2013-01-21 10:20:00,
2013-01-21 02:35:00,43.8,30.0,30.11,NW,306,0.0,0.0,58,0.00,,,0.00,0,weatherlink.com 1.10,2013-01-21 10:35:00,
2013-01-21 02:50:00,42.5,29.0,30.11,NW,306,0.0,0.0,60,0.00,,,0.00,0,weatherlink.com 1.10,2013-01-21 10:50:00,
2013-01-21 03:05:00,42.1,29.0,30.11,NW,306,0.0,0.0,59,0.00,,,0.00,0,weatherlink.com 1.10,2013-01-21 11:05:00,
2013-01-21 03:20:00,41.3,29.0,30.10,NW,306,0.0,0.0,61,0.00,,,0.00,0,weatherlink.com 1.10,2013-01-21 11:20:00,
2013-01-21 03:35:00,41.1,29.0,30.09,NW,306,0.0,0.0,62,0.00,,,0.00,0,weatherlink.com 1.10,2013-01-21 11:35:00,
2013-01-21 03:50:00,41.6,29.0,30.10,NW,306,0.0,2.0,62,0.00,,,0.00,0,weatherlink.com 1.10,2013-01-21 11:50:00,
2013-01-21 04:05:00,41.2,30.0,30.09,NE,44,0.0,1.0,64,0.00,,,0.00,0,weatherlink.com 1.10,2013-01-21 12:05:00,
2013-01-21 04:20:00,41.2,31.0,30.09,NE,44,0.0,0.0,67,0.00,,,0.00,0,weatherlink.com 1.10,2013-01-21 12:20:00,
2013-01-21 04:35:00,40.8,31.0,30.09,NE,44,0.0,1.0,67,0.00,,,0.00,0,weatherlink.com 1.10,2013-01-21 12:35:00,
2013-01-21 04:51:00,40.1,29.0,30.08,NE,44,0.0,0.0,66,0.00,,,0.00,0,weatherlink.com 1.10,2013-01-21 12:51:00,
2013-01-21 05:06:00,39.5,30.0,30.08,NE,44,0.0,1.0,68,0.00,,,0.00,0,weatherlink.com 1.10,2013-01-21 13:06:00,
2013-01-21 05:21:00,38.8,30.0,30.08,NE,44,0.0,1.0,70,0.00,,,0.00,0,weatherlink.com 1.10,2013-01-21 13:21:00,
2013-01-21 05:36:00,38.2,30.0,30.08,NE,44,0.0,1.0,72,0.00,,,0.00,0,weatherlink.com 1.10,2013-01-21 13:36:00,
2013-01-21 05:51:00,38.2,30.0,30.08,NE,44,0.0,1.0,73,0.00,,,0.00,0,weatherlink.com 1.10,2013-01-21 13:51:00,
2013-01-21 06:06:00,37.9,30.0,30.08,NE,44,0.0,0.0,73,0.00,,,0.00,0,weatherlink.com 1.10,2013-01-21 14:06:00,
2013-01-21 06:21:00,37.5,30.0,30.08,NE,44,0.0,0.0,75,0.00,,,0.00,0,weatherlink.com 1.10,2013-01-21 14:21:00,
2013-01-21 06:36:00,37.2,31.0,30.09,NE,44,0.0,0.0,77,0.00,,,0.00,0,weatherlink.com 1.10,2013-01-21 14:36:00,
2013-01-21 06:51:00,37.2,31.0,30.09,NE,44,0.0,2.0,78,0.00,,,0.00,0,weatherlink.com 1.10,2013-01-21 14:51:00,
2013-01-21 07:06:00,37.3,31.0,30.10,NE,44,0.0,0.0,79,0.00,,,0.00,0,weatherlink.com 1.10,2013-01-21 15:06:00,
2013-01-21 07:21:00,37.3,32.0,30.10,NE,44,0.0,1.0,80,0.00,,,0.00,0,weatherlink.com 1.10,2013-01-21 15:21:00,
2013-01-21 07:36:00,38.0,32.0,30.10,NE,44,0.0,1.0,78,0.00,,,0.00,9,weatherlink.com 1.10,2013-01-21 15:36:00,
2013-01-21 07:51:00,38.5,32.0,30.11,NE,44,0.0,2.0,78,0.00,,,0.00,12,weatherlink.com 1.10,2013-01-21 15:51:00,
2013-01-21 08:06:00,38.6,32.0,30.11,NE,44,0.0,1.0,78,0.00,,,0.00,18,weatherlink.com 1.10,2013-01-21 16:06:00,
2013-01-21 08:21:00,39.3,33.0,30.11,NE,44,0.0,1.0,78,0.00,,,0.00,21,weatherlink.com 1.10,2013-01-21 16:21:00,
2013-01-21 08:36:00,40.3,33.0,30.11,NE,53,0.0,2.0,75,0.00,,,0.00,23,weatherlink.com 1.10,2013-01-21 16:36:00,
2013-01-21 08:51:00,41.5,33.0,30.12,NE,53,0.0,1.0,73,0.00,,,0.00,26,weatherlink.com 1.10,2013-01-21 16:51:00,
2013-01-21 09:06:00,42.6,34.0,30.12,NE,53,0.0,1.0,72,0.00,,,0.00,28,weatherlink.com 1.10,2013-01-21 17:06:00,
2013-01-21 09:21:00,43.9,35.0,30.13,NE,53,0.0,1.0,72,0.00,,,0.00,39,weatherlink.com 1.10,2013-01-21 17:21:00,
2013-01-21 09:36:00,44.9,36.0,30.14,NE,53,0.0,1.0,70,0.00,,,0.00,294,weatherlink.com 1.10,2013-01-21 17:36:00,
2013-01-21 09:51:00,46.0,36.0,30.14,NE,53,0.0,1.0,68,0.00,,,0.00,142,weatherlink.com 1.10,2013-01-21 17:51:00,
2013-01-21 10:06:00,47.0,36.0,30.14,NE,53,0.0,0.0,67,0.00,,,0.00,35,weatherlink.com 1.10,2013-01-21 18:06:00,
2013-01-21 10:21:00,47.9,37.0,30.14,NE,53,0.0,1.0,65,0.00,,,0.00,30,weatherlink.com 1.10,2013-01-21 18:21:00,
2013-01-21 10:36:00,48.9,37.0,30.14,NE,53,0.0,1.0,64,0.00,,,0.00,32,weatherlink.com 1.10,2013-01-21 18:36:00,
2013-01-21 11:06:00,51.4,39.0,30.14,NW,318,0.0,2.0,64,0.00,,,0.00,32,weatherlink.com 1.10,2013-01-21 19:06:00,
2013-01-21 11:21:00,52.0,40.0,30.14,NW,318,0.0,1.0,63,0.00,,,0.00,32,weatherlink.com 1.10,2013-01-21 19:21:00,
2013-01-21 11:36:00,52.8,39.0,30.12,NW,318,0.0,2.0,60,0.00,,,0.00,33,weatherlink.com 1.10,2013-01-21 19:36:00,
2013-01-21 11:51:00,53.5,39.0,30.12,NW,318,0.0,1.0,59,0.00,,,0.00,218,weatherlink.com 1.10,2013-01-21 19:51:00,
2013-01-21 12:06:00,55.0,39.0,30.11,NW,304,0.0,2.0,56,0.00,,,0.00,218,weatherlink.com 1.10,2013-01-21 20:06:00,
2013-01-21 12:22:00,55.4,39.0,30.11,NW,304,0.0,1.0,54,0.00,,,0.00,32,weatherlink.com 1.10,2013-01-21 20:22:00,
2013-01-21 12:37:00,55.7,39.0,30.10,NW,304,0.0,1.0,54,0.00,,,0.00,30,weatherlink.com 1.10,2013-01-21 20:37:00,
2013-01-21 12:52:00,55.9,39.0,30.09,NW,304,0.0,1.0,54,0.00,,,0.00,30,weatherlink.com 1.10,2013-01-21 20:52:00,
2013-01-21 13:07:00,55.9,39.0,30.10,NW,304,1.0,1.0,54,0.00,,,0.00,30,weatherlink.com 1.10,2013-01-21 21:07:00,
2013-01-21 13:22:00,56.0,39.0,30.09,WSW,250,0.0,2.0,53,0.00,,,0.00,30,weatherlink.com 1.10,2013-01-21 21:22:00,
2013-01-21 13:37:00,56.3,39.0,30.08,WSW,250,0.0,1.0,53,0.00,,,0.00,30,weatherlink.com 1.10,2013-01-21 21:37:00,
2013-01-21 13:52:00,56.5,40.0,30.08,WSW,250,0.0,1.0,54,0.00,,,0.00,30,weatherlink.com 1.10,2013-01-21 21:52:00,
2013-01-21 14:07:00,56.5,40.0,30.07,WSW,250,0.0,1.0,54,0.00,,,0.00,28,weatherlink.com 1.10,2013-01-21 22:07:00,
2013-01-21 14:22:00,57.0,39.0,30.07,WSW,250,0.0,1.0,51,0.00,,,0.00,30,weatherlink.com 1.10,2013-01-21 22:22:00,
2013-01-21 14:37:00,57.6,39.0,30.07,WSW,250,0.0,1.0,51,0.00,,,0.00,30,weatherlink.com 1.10,2013-01-21 22:37:00,
2013-01-21 14:52:00,58.0,39.0,30.07,WSW,250,0.0,1.0,49,0.00,,,0.00,28,weatherlink.com 1.10,2013-01-21 22:52:00,
2013-01-21 15:07:00,58.3,40.0,30.07,WSW,250,0.0,1.0,51,0.00,,,0.00,28,weatherlink.com 1.10,2013-01-21 23:07:00,
2013-01-21 15:22:00,59.0,39.0,30.07,South,169,0.0,2.0,47,0.00,,,0.00,42,weatherlink.com 1.10,2013-01-21 23:22:00,
2013-01-21 15:37:00,59.9,38.0,30.06,ESE,116,0.0,3.0,44,0.00,,,0.00,30,weatherlink.com 1.10,2013-01-21 23:37:00,
2013-01-21 15:52:00,60.1,38.0,30.06,SE,124,0.0,5.0,44,0.00,,,0.00,30,weatherlink.com 1.10,2013-01-21 23:52:00,
2013-01-21 16:07:00,60.1,37.0,30.06,ESE,123,0.0,3.0,43,0.00,,,0.00,33,weatherlink.com 1.10,2013-01-22 00:07:00,
2013-01-21 16:22:00,60.2,36.0,30.05,SSE,167,0.0,3.0,40,0.00,,,0.00,32,weatherlink.com 1.10,2013-01-22 00:22:00,
2013-01-21 16:37:00,60.5,36.0,30.04,North,5,0.0,3.0,41,0.00,,,0.00,23,weatherlink.com 1.10,2013-01-22 00:37:00,
2013-01-21 16:52:00,59.5,39.0,30.04,North,5,0.0,1.0,46,0.00,,,0.00,14,weatherlink.com 1.10,2013-01-22 00:52:00,
2013-01-21 17:07:00,57.8,40.0,30.05,North,5,0.0,0.0,51,0.00,,,0.00,7,weatherlink.com 1.10,2013-01-22 01:07:00,
2013-01-21 17:22:00,56.2,39.0,30.05,North,5,0.0,0.0,52,0.00,,,0.00,0,weatherlink.com 1.10,2013-01-22 01:22:00,
2013-01-21 17:37:00,54.8,38.0,30.05,North,5,0.0,0.0,54,0.00,,,0.00,0,weatherlink.com 1.10,2013-01-22 01:37:00,
2013-01-21 17:52:00,53.5,38.0,30.05,North,5,0.0,0.0,56,0.00,,,0.00,0,weatherlink.com 1.10,2013-01-22 01:52:00,
2013-01-21 18:07:00,52.6,37.0,30.05,North,5,0.0,1.0,56,0.00,,,0.00,0,weatherlink.com 1.10,2013-01-22 02:07:00,
2013-01-21 18:22:00,52.2,38.0,30.05,North,5,0.0,0.0,59,0.00,,,0.00,0,weatherlink.com 1.10,2013-01-22 02:22:00,
2013-01-21 18:37:00,51.6,38.0,30.05,North,5,0.0,1.0,61,0.00,,,0.00,0,weatherlink.com 1.10,2013-01-22 02:37:00,
2013-01-21 18:52:00,51.1,39.0,30.06,North,5,0.0,1.0,63,0.00,,,0.00,0,weatherlink.com 1.10,2013-01-22 02:52:00,
2013-01-21 19:07:00,51.1,38.0,30.07,North,5,0.0,0.0,62,0.00,,,0.00,0,weatherlink.com 1.10,2013-01-22 03:07:00,
2013-01-21 19:22:00,51.0,37.0,30.07,North,5,0.0,0.0,60,0.00,,,0.00,0,weatherlink.com 1.10,2013-01-22 03:22:00,
2013-01-21 19:37:00,51.3,36.0,30.07,North,5,0.0,0.0,57,0.00,,,0.00,0,weatherlink.com 1.10,2013-01-22 03:37:00,
2013-01-21 20:08:00,50.2,33.0,30.07,North,5,0.0,0.0,53,0.00,,,0.00,0,weatherlink.com 1.10,2013-01-22 04:08:00,
2013-01-21 20:22:00,49.5,32.0,30.07,North,5,0.0,0.0,52,0.00,,,0.00,0,weatherlink.com 1.10,2013-01-22 04:22:00,
2013-01-21 20:37:00,49.1,32.0,30.07,North,5,0.0,0.0,52,0.00,,,0.00,0,weatherlink.com 1.10,2013-01-22 04:37:00,
2013-01-21 20:52:00,48.8,32.0,30.08,North,5,0.0,0.0,52,0.00,,,0.00,0,weatherlink.com 1.10,2013-01-22 04:52:00,
2013-01-21 21:07:00,48.8,31.0,30.08,North,5,0.0,0.0,50,0.00,,,0.00,0,weatherlink.com 1.10,2013-01-22 05:07:00,
2013-01-21 21:22:00,48.2,33.0,30.09,North,5,0.0,0.0,56,0.00,,,0.00,0,weatherlink.com 1.10,2013-01-22 05:22:00,
2013-01-21 21:37:00,47.3,32.0,30.09,North,5,0.0,0.0,55,0.00,,,0.00,0,weatherlink.com 1.10,2013-01-22 05:37:00,
2013-01-21 21:52:00,47.4,33.0,30.09,North,5,0.0,0.0,58,0.00,,,0.00,0,weatherlink.com 1.10,2013-01-22 05:52:00,
2013-01-21 22:07:00,47.1,32.0,30.09,North,5,0.0,0.0,56,0.00,,,0.00,0,weatherlink.com 1.10,2013-01-22 06:07:00,
2013-01-21 22:22:00,47.1,32.0,30.09,North,5,0.0,0.0,57,0.00,,,0.00,0,weatherlink.com 1.10,2013-01-22 06:22:00,
2013-01-21 22:37:00,47.7,31.0,30.09,NNE,33,0.0,1.0,52,0.00,,,0.00,0,weatherlink.com 1.10,2013-01-22 06:37:00,
2013-01-21 22:52:00,49.6,31.0,30.09,ESE,121,0.0,2.0,50,0.00,,,0.00,0,weatherlink.com 1.10,2013-01-22 06:52:00,
2013-01-21 23:07:00,50.1,32.0,30.09,SE,132,0.0,3.0,51,0.00,,,0.00,0,weatherlink.com 1.10,2013-01-22 07:07:00,
2013-01-21 23:22:00,48.2,31.0,30.08,SE,132,0.0,1.0,51,0.00,,,0.00,0,weatherlink.com 1.10,2013-01-22 07:22:00,
2013-01-21 23:37:00,46.8,32.0,30.08,SE,132,0.0,0.0,56,0.00,,,0.00,0,weatherlink.com 1.10,2013-01-22 07:37:00,
2013-01-21 23:52:00,45.8,31.0,30.07,SE,132,0.0,0.0,56,0.00,,,0.00,0,weatherlink.com 1.10,2013-01-22 07:52:00,